Terminal Aerodrome Forecast
Issued by NWS

Home | Current Version | Previous Version | Graphics & Text | Print | Product List | Glossary On
Versions: 1 2 3 4 5 6 7 8 9 10 11 12 13 14 15 16 17 18 19 20 21
446
FTUS43 KMPX 171120
TAFRWF
TAF
KRWF 171120Z 1712/1812 28009KT P6SM SKC
     FM180000 VRB04KT P6SM SCT110
     FM180500 15006KT P6SM OVC110=

USA.gov is the U.S. government's official web portal to all federal, state and local government web resources and services.